sensor_id;sensor_type;location;lat;lon;timestamp;temperature;humidity
9118;DHT22;4594;50.994;7.126;2023-06-22T00:02:17;24.80;35.20
9118;DHT22;4594;50.994;7.126;2023-06-22T00:04:43;24.80;35.10
9118;DHT22;4594;50.994;7.126;2023-06-22T00:07:09;24.80;35.10
9118;DHT22;4594;50.994;7.126;2023-06-22T00:09:36;24.80;35.10
9118;DHT22;4594;50.994;7.126;2023-06-22T00:12:02;24.80;35.10
9118;DHT22;4594;50.994;7.126;2023-06-22T00:14:28;24.80;35.10
9118;DHT22;4594;50.994;7.126;2023-06-22T00:16:54;24.90;35.20
9118;DHT22;4594;50.994;7.126;2023-06-22T00:19:24;24.90;35.20
9118;DHT22;4594;50.994;7.126;2023-06-22T00:21:51;24.80;35.10
9118;DHT22;4594;50.994;7.126;2023-06-22T00:24:23;24.80;35.10
9118;DHT22;4594;50.994;7.126;2023-06-22T00:26:49;24.70;35.10
9118;DHT22;4594;50.994;7.126;2023-06-22T00:29:15;24.80;35.10
9118;DHT22;4594;50.994;7.126;2023-06-22T00:31:42;24.90;35.20
9118;DHT22;4594;50.994;7.126;2023-06-22T00:34:08;24.80;35.10
9118;DHT22;4594;50.994;7.126;2023-06-22T00:36:34;24.80;35.10
9118;DHT22;4594;50.994;7.126;2023-06-22T00:39:01;24.80;35.10
9118;DHT22;4594;50.994;7.126;2023-06-22T00:41:27;24.90;35.20
9118;DHT22;4594;50.994;7.126;2023-06-22T00:43:54;24.80;35.10
9118;DHT22;4594;50.994;7.126;2023-06-22T00:46:21;24.90;35.20
9118;DHT22;4594;50.994;7.126;2023-06-22T00:48:48;24.90;35.20
9118;DHT22;4594;50.994;7.126;2023-06-22T00:51:15;24.90;35.20
9118;DHT22;4594;50.994;7.126;2023-06-22T00:53:41;24.90;35.20
9118;DHT22;4594;50.994;7.126;2023-06-22T00:56:08;24.80;35.10
9118;DHT22;4594;50.994;7.126;2023-06-22T00:58:38;24.80;35.10
9118;DHT22;4594;50.994;7.126;2023-06-22T01:01:07;24.80;35.10
9118;DHT22;4594;50.994;7.126;2023-06-22T01:03:33;24.80;35.10
9118;DHT22;4594;50.994;7.126;2023-06-22T01:06:02;24.80;35.10
9118;DHT22;4594;50.994;7.126;2023-06-22T01:08:46;24.80;35.10
9118;DHT22;4594;50.994;7.126;2023-06-22T01:11:25;24.80;35.10
9118;DHT22;4594;50.994;7.126;2023-06-22T01:14:04;24.80;35.20
9118;DHT22;4594;50.994;7.126;2023-06-22T01:16:39;24.80;35.20
9118;DHT22;4594;50.994;7.126;2023-06-22T01:22:01;24.80;35.20
9118;DHT22;4594;50.994;7.126;2023-06-22T01:24:39;24.80;35.20
9118;DHT22;4594;50.994;7.126;2023-06-22T01:30:17;24.80;35.20
9118;DHT22;4594;50.994;7.126;2023-06-22T01:32:44;24.80;35.10
9118;DHT22;4594;50.994;7.126;2023-06-22T01:35:12;24.80;35.10
9118;DHT22;4594;50.994;7.126;2023-06-22T01:37:39;24.80;35.20
9118;DHT22;4594;50.994;7.126;2023-06-22T01:40:07;24.70;35.10
9118;DHT22;4594;50.994;7.126;2023-06-22T01:42:34;24.80;35.20
9118;DHT22;4594;50.994;7.126;2023-06-22T01:45:01;24.70;35.10
9118;DHT22;4594;50.994;7.126;2023-06-22T01:47:27;24.70;35.10
9118;DHT22;4594;50.994;7.126;2023-06-22T01:49:53;24.70;35.20
9118;DHT22;4594;50.994;7.126;2023-06-22T01:52:20;24.70;35.20
9118;DHT22;4594;50.994;7.126;2023-06-22T01:54:47;24.70;35.20
9118;DHT22;4594;50.994;7.126;2023-06-22T01:57:13;24.70;35.20
9118;DHT22;4594;50.994;7.126;2023-06-22T02:02:12;24.60;35.20
9118;DHT22;4594;50.994;7.126;2023-06-22T02:07:29;24.60;35.30
9118;DHT22;4594;50.994;7.126;2023-06-22T02:09:58;24.60;35.30
9118;DHT22;4594;50.994;7.126;2023-06-22T02:12:28;24.60;35.30
9118;DHT22;4594;50.994;7.126;2023-06-22T02:14:56;24.50;35.20
9118;DHT22;4594;50.994;7.126;2023-06-22T02:17:24;24.60;35.30
9118;DHT22;4594;50.994;7.126;2023-06-22T02:19:51;24.60;35.40
9118;DHT22;4594;50.994;7.126;2023-06-22T02:22:16;24.60;35.40
9118;DHT22;4594;50.994;7.126;2023-06-22T02:24:42;24.60;35.40
9118;DHT22;4594;50.994;7.126;2023-06-22T02:27:07;24.60;35.50
9118;DHT22;4594;50.994;7.126;2023-06-22T02:29:33;24.50;35.40
9118;DHT22;4594;50.994;7.126;2023-06-22T02:31:59;24.60;35.50
9118;DHT22;4594;50.994;7.126;2023-06-22T02:34:26;24.50;35.40
9118;DHT22;4594;50.994;7.126;2023-06-22T02:36:51;24.60;35.50
9118;DHT22;4594;50.994;7.126;2023-06-22T02:39:24;24.60;35.50
9118;DHT22;4594;50.994;7.126;2023-06-22T02:41:51;24.60;35.60
9118;DHT22;4594;50.994;7.126;2023-06-22T02:44:19;24.60;35.60
9118;DHT22;4594;50.994;7.126;2023-06-22T02:46:46;24.60;35.60
9118;DHT22;4594;50.994;7.126;2023-06-22T02:49:13;24.60;35.60
9118;DHT22;4594;50.994;7.126;2023-06-22T02:51:41;24.60;35.60
9118;DHT22;4594;50.994;7.126;2023-06-22T02:54:10;24.60;35.60
9118;DHT22;4594;50.994;7.126;2023-06-22T02:56:36;24.60;35.60
9118;DHT22;4594;50.994;7.126;2023-06-22T02:59:02;24.60;35.70
9118;DHT22;4594;50.994;7.126;2023-06-22T03:01:28;24.50;35.60
9118;DHT22;4594;50.994;7.126;2023-06-22T03:03:56;24.60;35.70
9118;DHT22;4594;50.994;7.126;2023-06-22T03:06:22;24.50;35.60
9118;DHT22;4594;50.994;7.126;2023-06-22T03:08:51;24.50;35.60
9118;DHT22;4594;50.994;7.126;2023-06-22T03:11:17;24.50;35.70
9118;DHT22;4594;50.994;7.126;2023-06-22T03:13:43;24.50;35.70
9118;DHT22;4594;50.994;7.126;2023-06-22T03:16:09;24.50;35.70
9118;DHT22;4594;50.994;7.126;2023-06-22T03:18:35;24.50;35.70
9118;DHT22;4594;50.994;7.126;2023-06-22T03:21:01;24.40;35.70
9118;DHT22;4594;50.994;7.126;2023-06-22T03:23:27;24.40;35.70
9118;DHT22;4594;50.994;7.126;2023-06-22T03:25:53;24.40;35.70
9118;DHT22;4594;50.994;7.126;2023-06-22T03:28:21;24.40;35.80
9118;DHT22;4594;50.994;7.126;2023-06-22T03:30:47;24.40;35.80
9118;DHT22;4594;50.994;7.126;2023-06-22T03:33:13;24.40;35.80
9118;DHT22;4594;50.994;7.126;2023-06-22T03:35:38;24.30;35.80
9118;DHT22;4594;50.994;7.126;2023-06-22T03:38:04;24.30;35.80
9118;DHT22;4594;50.994;7.126;2023-06-22T03:40:30;24.30;35.90
9118;DHT22;4594;50.994;7.126;2023-06-22T03:42:56;24.30;35.90
9118;DHT22;4594;50.994;7.126;2023-06-22T03:45:21;24.30;35.90
9118;DHT22;4594;50.994;7.126;2023-06-22T03:47:47;24.30;35.90
9118;DHT22;4594;50.994;7.126;2023-06-22T03:50:13;24.30;36.00
9118;DHT22;4594;50.994;7.126;2023-06-22T03:52:40;24.30;36.00
9118;DHT22;4594;50.994;7.126;2023-06-22T03:55:06;24.30;36.00
9118;DHT22;4594;50.994;7.126;2023-06-22T03:57:33;24.30;36.10
9118;DHT22;4594;50.994;7.126;2023-06-22T03:59:59;24.30;36.10
9118;DHT22;4594;50.994;7.126;2023-06-22T04:02:25;24.30;36.20
9118;DHT22;4594;50.994;7.126;2023-06-22T04:04:51;24.30;36.20
9118;DHT22;4594;50.994;7.126;2023-06-22T04:07:17;24.30;36.50
9118;DHT22;4594;50.994;7.126;2023-06-22T04:09:43;24.30;36.20
9118;DHT22;4594;50.994;7.126;2023-06-22T04:12:09;24.30;36.30
9118;DHT22;4594;50.994;7.126;2023-06-22T04:14:34;24.30;36.60
9118;DHT22;4594;50.994;7.126;2023-06-22T04:17:01;24.30;36.30
9118;DHT22;4594;50.994;7.126;2023-06-22T04:19:27;24.30;36.40
9118;DHT22;4594;50.994;7.126;2023-06-22T04:21:53;24.20;36.30
9118;DHT22;4594;50.994;7.126;2023-06-22T04:24:18;24.30;36.50
9118;DHT22;4594;50.994;7.126;2023-06-22T04:26:44;24.40;36.60
9118;DHT22;4594;50.994;7.126;2023-06-22T04:29:12;24.40;36.60
9118;DHT22;4594;50.994;7.126;2023-06-22T04:31:38;24.40;36.60
9118;DHT22;4594;50.994;7.126;2023-06-22T04:34:05;24.40;36.70
9118;DHT22;4594;50.994;7.126;2023-06-22T04:36:38;24.40;36.70
9118;DHT22;4594;50.994;7.126;2023-06-22T04:39:10;24.50;36.80
9118;DHT22;4594;50.994;7.126;2023-06-22T04:41:40;24.50;36.90
9118;DHT22;4594;50.994;7.126;2023-06-22T04:44:16;24.50;36.90
9118;DHT22;4594;50.994;7.126;2023-06-22T04:46:56;24.50;37.00
9118;DHT22;4594;50.994;7.126;2023-06-22T04:49:28;24.50;37.00
9118;DHT22;4594;50.994;7.126;2023-06-22T04:52:04;24.50;36.90
9118;DHT22;4594;50.994;7.126;2023-06-22T04:54:31;24.50;36.90
9118;DHT22;4594;50.994;7.126;2023-06-22T04:56:59;24.50;37.00
9118;DHT22;4594;50.994;7.126;2023-06-22T04:59:30;24.50;37.00
9118;DHT22;4594;50.994;7.126;2023-06-22T05:02:01;24.50;37.10
9118;DHT22;4594;50.994;7.126;2023-06-22T05:04:29;24.50;37.20
9118;DHT22;4594;50.994;7.126;2023-06-22T05:06:59;24.50;37.10
9118;DHT22;4594;50.994;7.126;2023-06-22T05:09:26;24.50;37.20
9118;DHT22;4594;50.994;7.126;2023-06-22T05:11:52;24.50;37.20
9118;DHT22;4594;50.994;7.126;2023-06-22T05:14:18;24.50;37.30
9118;DHT22;4594;50.994;7.126;2023-06-22T05:16:44;24.50;37.40
9118;DHT22;4594;50.994;7.126;2023-06-22T05:19:11;24.50;37.40
9118;DHT22;4594;50.994;7.126;2023-06-22T05:21:38;24.50;37.40
9118;DHT22;4594;50.994;7.126;2023-06-22T05:24:04;24.50;37.60
9118;DHT22;4594;50.994;7.126;2023-06-22T05:26:31;24.50;37.60
9118;DHT22;4594;50.994;7.126;2023-06-22T05:28:58;24.50;37.70
9118;DHT22;4594;50.994;7.126;2023-06-22T05:31:25;24.50;37.80
9118;DHT22;4594;50.994;7.126;2023-06-22T05:33:53;24.60;37.90
9118;DHT22;4594;50.994;7.126;2023-06-22T05:36:20;24.60;38.00
9118;DHT22;4594;50.994;7.126;2023-06-22T05:38:50;24.60;38.00
9118;DHT22;4594;50.994;7.126;2023-06-22T05:41:17;24.70;38.10
9118;DHT22;4594;50.994;7.126;2023-06-22T05:43:42;24.80;38.20
9118;DHT22;4594;50.994;7.126;2023-06-22T05:46:08;24.70;38.10
9118;DHT22;4594;50.994;7.126;2023-06-22T05:48:34;24.80;38.30
9118;DHT22;4594;50.994;7.126;2023-06-22T05:50:59;24.90;38.50
9118;DHT22;4594;50.994;7.126;2023-06-22T05:53:25;24.90;38.40
9118;DHT22;4594;50.994;7.126;2023-06-22T05:55:51;25.00;38.50
9118;DHT22;4594;50.994;7.126;2023-06-22T05:58:17;25.10;38.60
9118;DHT22;4594;50.994;7.126;2023-06-22T06:00:43;25.20;38.60
9118;DHT22;4594;50.994;7.126;2023-06-22T06:03:10;25.20;38.50
9118;DHT22;4594;50.994;7.126;2023-06-22T06:05:36;25.30;38.60
9118;DHT22;4594;50.994;7.126;2023-06-22T06:08:05;25.50;38.80
9118;DHT22;4594;50.994;7.126;2023-06-22T06:10:32;25.70;39.10
9118;DHT22;4594;50.994;7.126;2023-06-22T06:12:58;26.00;39.30
9118;DHT22;4594;50.994;7.126;2023-06-22T06:15:27;26.40;39.60
9118;DHT22;4594;50.994;7.126;2023-06-22T06:17:53;26.80;39.70
9118;DHT22;4594;50.994;7.126;2023-06-22T06:20:21;27.30;39.80
9118;DHT22;4594;50.994;7.126;2023-06-22T06:22:48;27.70;39.60
9118;DHT22;4594;50.994;7.126;2023-06-22T06:25:14;28.20;39.40
9118;DHT22;4594;50.994;7.126;2023-06-22T06:27:44;28.70;39.40
9118;DHT22;4594;50.994;7.126;2023-06-22T06:30:12;29.10;39.40
9118;DHT22;4594;50.994;7.126;2023-06-22T06:32:39;29.60;39.20
9118;DHT22;4594;50.994;7.126;2023-06-22T06:35:09;30.00;38.80
9118;DHT22;4594;50.994;7.126;2023-06-22T06:37:37;30.20;38.30
9118;DHT22;4594;50.994;7.126;2023-06-22T06:40:06;30.50;38.20
9118;DHT22;4594;50.994;7.126;2023-06-22T06:42:38;30.70;38.10
9118;DHT22;4594;50.994;7.126;2023-06-22T06:45:18;30.90;38.40
9118;DHT22;4594;50.994;7.126;2023-06-22T06:47:46;31.20;37.90
9118;DHT22;4594;50.994;7.126;2023-06-22T06:50:12;31.50;37.90
9118;DHT22;4594;50.994;7.126;2023-06-22T06:52:38;31.70;37.70
9118;DHT22;4594;50.994;7.126;2023-06-22T06:55:04;31.80;37.50
9118;DHT22;4594;50.994;7.126;2023-06-22T06:57:33;32.00;37.50
9118;DHT22;4594;50.994;7.126;2023-06-22T06:59:59;32.20;37.40
9118;DHT22;4594;50.994;7.126;2023-06-22T07:02:26;32.30;37.20
9118;DHT22;4594;50.994;7.126;2023-06-22T07:04:54;32.40;36.90
9118;DHT22;4594;50.994;7.126;2023-06-22T07:07:21;32.50;36.70
9118;DHT22;4594;50.994;7.126;2023-06-22T07:09:46;32.40;36.50
9118;DHT22;4594;50.994;7.126;2023-06-22T07:12:12;32.50;36.50
9118;DHT22;4594;50.994;7.126;2023-06-22T07:14:38;32.40;36.40
9118;DHT22;4594;50.994;7.126;2023-06-22T07:17:04;32.20;36.30
9118;DHT22;4594;50.994;7.126;2023-06-22T07:19:29;32.20;36.50
9118;DHT22;4594;50.994;7.126;2023-06-22T07:21:57;32.40;36.80
9118;DHT22;4594;50.994;7.126;2023-06-22T07:24:23;32.60;37.00
9118;DHT22;4594;50.994;7.126;2023-06-22T07:26:50;32.80;37.10
9118;DHT22;4594;50.994;7.126;2023-06-22T07:29:17;33.20;37.20
9118;DHT22;4594;50.994;7.126;2023-06-22T07:31:44;33.60;37.00
9118;DHT22;4594;50.994;7.126;2023-06-22T07:34:10;33.90;36.70
9118;DHT22;4594;50.994;7.126;2023-06-22T07:36:36;34.10;36.60
9118;DHT22;4594;50.994;7.126;2023-06-22T07:39:02;34.30;36.60
9118;DHT22;4594;50.994;7.126;2023-06-22T07:41:29;34.60;36.70
9118;DHT22;4594;50.994;7.126;2023-06-22T07:43:55;34.90;36.60
9118;DHT22;4594;50.994;7.126;2023-06-22T07:46:21;35.20;36.50
9118;DHT22;4594;50.994;7.126;2023-06-22T07:48:47;35.40;36.40
9118;DHT22;4594;50.994;7.126;2023-06-22T07:51:13;35.60;36.00
9118;DHT22;4594;50.994;7.126;2023-06-22T07:53:43;35.70;35.80
9118;DHT22;4594;50.994;7.126;2023-06-22T07:56:13;35.70;35.60
9118;DHT22;4594;50.994;7.126;2023-06-22T07:58:44;35.70;35.20
9118;DHT22;4594;50.994;7.126;2023-06-22T08:01:11;35.70;35.50
9118;DHT22;4594;50.994;7.126;2023-06-22T08:03:38;35.80;35.50
9118;DHT22;4594;50.994;7.126;2023-06-22T08:06:05;35.80;35.60
9118;DHT22;4594;50.994;7.126;2023-06-22T08:08:31;36.00;35.80
9118;DHT22;4594;50.994;7.126;2023-06-22T08:10:57;36.30;35.90
9118;DHT22;4594;50.994;7.126;2023-06-22T08:13:23;36.50;35.90
9118;DHT22;4594;50.994;7.126;2023-06-22T08:15:49;36.90;35.90
9118;DHT22;4594;50.994;7.126;2023-06-22T08:18:14;37.20;35.80
9118;DHT22;4594;50.994;7.126;2023-06-22T08:20:41;37.60;35.80
9118;DHT22;4594;50.994;7.126;2023-06-22T08:23:07;37.90;35.50
9118;DHT22;4594;50.994;7.126;2023-06-22T08:25:34;38.20;35.30
9118;DHT22;4594;50.994;7.126;2023-06-22T08:28:01;38.40;35.10
9118;DHT22;4594;50.994;7.126;2023-06-22T08:30:28;38.50;34.60
9118;DHT22;4594;50.994;7.126;2023-06-22T08:32:53;38.60;34.50
9118;DHT22;4594;50.994;7.126;2023-06-22T08:35:21;38.60;34.30
9118;DHT22;4594;50.994;7.126;2023-06-22T08:37:47;38.70;34.40
9118;DHT22;4594;50.994;7.126;2023-06-22T08:40:18;38.80;34.40
9118;DHT22;4594;50.994;7.126;2023-06-22T08:42:45;39.00;34.50
9118;DHT22;4594;50.994;7.126;2023-06-22T08:45:12;39.20;34.40
9118;DHT22;4594;50.994;7.126;2023-06-22T08:47:39;39.40;34.40
9118;DHT22;4594;50.994;7.126;2023-06-22T08:50:09;39.60;34.30
9118;DHT22;4594;50.994;7.126;2023-06-22T08:52:37;39.90;34.20
9118;DHT22;4594;50.994;7.126;2023-06-22T08:55:04;40.00;33.90
9118;DHT22;4594;50.994;7.126;2023-06-22T08:57:31;40.20;33.80
9118;DHT22;4594;50.994;7.126;2023-06-22T08:59:58;40.20;33.60
9118;DHT22;4594;50.994;7.126;2023-06-22T09:02:27;40.20;33.40
9118;DHT22;4594;50.994;7.126;2023-06-22T09:04:58;40.00;33.10
9118;DHT22;4594;50.994;7.126;2023-06-22T09:07:25;39.80;32.80
9118;DHT22;4594;50.994;7.126;2023-06-22T09:09:51;39.50;32.60
9118;DHT22;4594;50.994;7.126;2023-06-22T09:12:18;39.20;32.60
9118;DHT22;4594;50.994;7.126;2023-06-22T09:14:46;38.90;32.50
9118;DHT22;4594;50.994;7.126;2023-06-22T09:17:13;38.50;32.40
9118;DHT22;4594;50.994;7.126;2023-06-22T09:19:39;38.20;32.50
9118;DHT22;4594;50.994;7.126;2023-06-22T09:22:05;38.00;32.50
9118;DHT22;4594;50.994;7.126;2023-06-22T09:24:32;37.70;32.60
9118;DHT22;4594;50.994;7.126;2023-06-22T09:26:58;37.50;32.70
9118;DHT22;4594;50.994;7.126;2023-06-22T09:29:24;37.30;32.70
9118;DHT22;4594;50.994;7.126;2023-06-22T09:31:50;37.10;32.70
9118;DHT22;4594;50.994;7.126;2023-06-22T09:34:16;37.00;32.80
9118;DHT22;4594;50.994;7.126;2023-06-22T09:36:48;36.80;32.70
9118;DHT22;4594;50.994;7.126;2023-06-22T09:39:14;36.60;32.70
9118;DHT22;4594;50.994;7.126;2023-06-22T09:41:40;36.50;32.70
9118;DHT22;4594;50.994;7.126;2023-06-22T09:44:06;36.30;32.70
9118;DHT22;4594;50.994;7.126;2023-06-22T09:46:31;36.10;32.70
9118;DHT22;4594;50.994;7.126;2023-06-22T09:48:57;36.00;32.90
9118;DHT22;4594;50.994;7.126;2023-06-22T09:51:23;35.90;32.90
9118;DHT22;4594;50.994;7.126;2023-06-22T09:53:49;35.80;32.80
9118;DHT22;4594;50.994;7.126;2023-06-22T09:56:16;35.80;32.90
9118;DHT22;4594;50.994;7.126;2023-06-22T09:58:42;35.70;33.00
9118;DHT22;4594;50.994;7.126;2023-06-22T10:01:09;35.60;32.80
9118;DHT22;4594;50.994;7.126;2023-06-22T10:03:36;35.50;32.80
9118;DHT22;4594;50.994;7.126;2023-06-22T10:06:02;35.40;32.80
9118;DHT22;4594;50.994;7.126;2023-06-22T10:08:28;35.20;32.80
9118;DHT22;4594;50.994;7.126;2023-06-22T10:10:54;35.00;32.70
9118;DHT22;4594;50.994;7.126;2023-06-22T10:13:20;34.90;32.80
9118;DHT22;4594;50.994;7.126;2023-06-22T10:15:46;34.70;32.80
9118;DHT22;4594;50.994;7.126;2023-06-22T10:18:15;34.60;32.90
9118;DHT22;4594;50.994;7.126;2023-06-22T10:20:42;34.40;32.80
9118;DHT22;4594;50.994;7.126;2023-06-22T10:23:07;34.20;32.90
9118;DHT22;4594;50.994;7.126;2023-06-22T10:25:33;34.10;32.90
9118;DHT22;4594;50.994;7.126;2023-06-22T10:27:59;33.90;32.90
9118;DHT22;4594;50.994;7.126;2023-06-22T10:30:24;33.70;32.90
9118;DHT22;4594;50.994;7.126;2023-06-22T10:32:50;33.50;32.90
9118;DHT22;4594;50.994;7.126;2023-06-22T10:35:16;33.30;32.90
9118;DHT22;4594;50.994;7.126;2023-06-22T10:37:46;33.20;33.10
9118;DHT22;4594;50.994;7.126;2023-06-22T10:40:16;32.90;33.40
9118;DHT22;4594;50.994;7.126;2023-06-22T10:42:44;32.70;33.70
9118;DHT22;4594;50.994;7.126;2023-06-22T10:45:10;32.50;34.00
9118;DHT22;4594;50.994;7.126;2023-06-22T10:47:36;32.30;34.40
9118;DHT22;4594;50.994;7.126;2023-06-22T10:50:03;32.00;34.50
9118;DHT22;4594;50.994;7.126;2023-06-22T10:52:30;31.70;34.80
9118;DHT22;4594;50.994;7.126;2023-06-22T10:54:55;31.40;35.00
9118;DHT22;4594;50.994;7.126;2023-06-22T10:57:21;31.20;35.20
9118;DHT22;4594;50.994;7.126;2023-06-22T10:59:47;31.00;35.60
9118;DHT22;4594;50.994;7.126;2023-06-22T11:02:13;30.70;35.80
9118;DHT22;4594;50.994;7.126;2023-06-22T11:04:39;30.40;36.20
9118;DHT22;4594;50.994;7.126;2023-06-22T11:07:05;30.30;36.70
9118;DHT22;4594;50.994;7.126;2023-06-22T11:09:31;30.10;37.00
9118;DHT22;4594;50.994;7.126;2023-06-22T11:11:57;29.90;37.30
9118;DHT22;4594;50.994;7.126;2023-06-22T11:14:24;29.70;37.50
9118;DHT22;4594;50.994;7.126;2023-06-22T11:16:50;29.50;37.70
9118;DHT22;4594;50.994;7.126;2023-06-22T11:19:16;29.30;37.90
9118;DHT22;4594;50.994;7.126;2023-06-22T11:21:42;29.20;38.20
9118;DHT22;4594;50.994;7.126;2023-06-22T11:24:07;28.90;38.30
9118;DHT22;4594;50.994;7.126;2023-06-22T11:26:33;28.90;38.60
9118;DHT22;4594;50.994;7.126;2023-06-22T11:28:59;28.80;38.80
9118;DHT22;4594;50.994;7.126;2023-06-22T11:31:25;28.50;39.00
9118;DHT22;4594;50.994;7.126;2023-06-22T11:33:51;28.40;39.30
9118;DHT22;4594;50.994;7.126;2023-06-22T11:36:17;28.30;39.60
9118;DHT22;4594;50.994;7.126;2023-06-22T11:38:47;28.10;39.70
9118;DHT22;4594;50.994;7.126;2023-06-22T11:41:14;27.90;40.00
9118;DHT22;4594;50.994;7.126;2023-06-22T11:43:39;27.70;40.30
9118;DHT22;4594;50.994;7.126;2023-06-22T11:46:05;27.50;41.20
9118;DHT22;4594;50.994;7.126;2023-06-22T11:48:31;27.30;41.70
9118;DHT22;4594;50.994;7.126;2023-06-22T11:50:58;27.20;42.40
9118;DHT22;4594;50.994;7.126;2023-06-22T11:53:25;27.00;42.70
9118;DHT22;4594;50.994;7.126;2023-06-22T11:55:52;26.90;43.30
9118;DHT22;4594;50.994;7.126;2023-06-22T11:58:19;26.80;44.10
9118;DHT22;4594;50.994;7.126;2023-06-22T12:00:45;26.70;44.90
9118;DHT22;4594;50.994;7.126;2023-06-22T12:03:11;26.70;45.90
9118;DHT22;4594;50.994;7.126;2023-06-22T12:05:37;26.70;47.10
9118;DHT22;4594;50.994;7.126;2023-06-22T12:08:04;26.70;48.30
9118;DHT22;4594;50.994;7.126;2023-06-22T12:10:30;26.80;50.00
9118;DHT22;4594;50.994;7.126;2023-06-22T12:12:56;26.90;51.40
9118;DHT22;4594;50.994;7.126;2023-06-22T12:15:25;27.00;52.30
9118;DHT22;4594;50.994;7.126;2023-06-22T12:17:52;27.10;54.00
9118;DHT22;4594;50.994;7.126;2023-06-22T12:20:18;27.30;54.40
9118;DHT22;4594;50.994;7.126;2023-06-22T12:22:44;27.40;54.10
9118;DHT22;4594;50.994;7.126;2023-06-22T12:25:10;27.40;54.10
9118;DHT22;4594;50.994;7.126;2023-06-22T12:27:37;27.50;54.00
9118;DHT22;4594;50.994;7.126;2023-06-22T12:30:03;27.50;53.50
9118;DHT22;4594;50.994;7.126;2023-06-22T12:32:30;27.40;53.10
9118;DHT22;4594;50.994;7.126;2023-06-22T12:34:56;26.40;53.00
9118;DHT22;4594;50.994;7.126;2023-06-22T12:37:22;27.30;53.90
9118;DHT22;4594;50.994;7.126;2023-06-22T12:39:48;27.20;54.10
9118;DHT22;4594;50.994;7.126;2023-06-22T12:42:15;27.20;54.50
9118;DHT22;4594;50.994;7.126;2023-06-22T12:44:42;27.10;54.40
9118;DHT22;4594;50.994;7.126;2023-06-22T12:47:08;27.10;54.50
9118;DHT22;4594;50.994;7.126;2023-06-22T12:49:35;27.00;54.90
9118;DHT22;4594;50.994;7.126;2023-06-22T12:52:02;27.00;55.80
9118;DHT22;4594;50.994;7.126;2023-06-22T12:54:28;27.00;56.70
9118;DHT22;4594;50.994;7.126;2023-06-22T12:56:55;27.00;57.20
9118;DHT22;4594;50.994;7.126;2023-06-22T12:59:20;27.10;57.40
9118;DHT22;4594;50.994;7.126;2023-06-22T13:01:46;27.10;57.30
9118;DHT22;4594;50.994;7.126;2023-06-22T13:04:12;27.10;57.30
9118;DHT22;4594;50.994;7.126;2023-06-22T13:06:41;27.10;57.10
9118;DHT22;4594;50.994;7.126;2023-06-22T13:09:09;27.10;56.90
9118;DHT22;4594;50.994;7.126;2023-06-22T13:11:35;27.10;57.20
9118;DHT22;4594;50.994;7.126;2023-06-22T13:14:01;27.10;57.80
9118;DHT22;4594;50.994;7.126;2023-06-22T13:16:26;27.10;58.10
9118;DHT22;4594;50.994;7.126;2023-06-22T13:18:52;27.10;58.20
9118;DHT22;4594;50.994;7.126;2023-06-22T13:21:18;27.20;58.20
9118;DHT22;4594;50.994;7.126;2023-06-22T13:23:44;27.20;58.10
9118;DHT22;4594;50.994;7.126;2023-06-22T13:26:10;27.20;58.10
9118;DHT22;4594;50.994;7.126;2023-06-22T13:28:36;27.30;58.30
9118;DHT22;4594;50.994;7.126;2023-06-22T13:31:01;27.30;57.80
9118;DHT22;4594;50.994;7.126;2023-06-22T13:33:27;27.30;57.70
9118;DHT22;4594;50.994;7.126;2023-06-22T13:35:53;27.30;57.60
9118;DHT22;4594;50.994;7.126;2023-06-22T13:38:18;27.20;57.20
9118;DHT22;4594;50.994;7.126;2023-06-22T13:40:44;27.20;57.40
9118;DHT22;4594;50.994;7.126;2023-06-22T13:43:10;27.20;56.70
9118;DHT22;4594;50.994;7.126;2023-06-22T13:45:36;27.10;57.00
9118;DHT22;4594;50.994;7.126;2023-06-22T13:48:01;27.10;56.90
9118;DHT22;4594;50.994;7.126;2023-06-22T13:50:27;27.10;57.10
9118;DHT22;4594;50.994;7.126;2023-06-22T13:52:54;27.10;57.40
9118;DHT22;4594;50.994;7.126;2023-06-22T13:55:20;27.00;57.10
9118;DHT22;4594;50.994;7.126;2023-06-22T13:57:46;27.10;57.60
9118;DHT22;4594;50.994;7.126;2023-06-22T14:00:12;27.10;57.90
9118;DHT22;4594;50.994;7.126;2023-06-22T14:02:39;27.10;57.80
9118;DHT22;4594;50.994;7.126;2023-06-22T14:05:07;27.10;57.80
9118;DHT22;4594;50.994;7.126;2023-06-22T14:07:33;27.10;57.80
9118;DHT22;4594;50.994;7.126;2023-06-22T14:10:00;27.20;57.80
9118;DHT22;4594;50.994;7.126;2023-06-22T14:12:26;27.20;57.50
9118;DHT22;4594;50.994;7.126;2023-06-22T14:14:52;27.10;57.60
9118;DHT22;4594;50.994;7.126;2023-06-22T14:17:17;27.20;57.90
9118;DHT22;4594;50.994;7.126;2023-06-22T14:19:49;27.20;58.40
9118;DHT22;4594;50.994;7.126;2023-06-22T14:22:15;27.30;58.50
9118;DHT22;4594;50.994;7.126;2023-06-22T14:24:41;27.30;58.90
9118;DHT22;4594;50.994;7.126;2023-06-22T14:27:07;27.40;58.80
9118;DHT22;4594;50.994;7.126;2023-06-22T14:29:34;27.40;58.20
9118;DHT22;4594;50.994;7.126;2023-06-22T14:32:00;27.40;58.10
9118;DHT22;4594;50.994;7.126;2023-06-22T14:34:26;27.40;57.80
9118;DHT22;4594;50.994;7.126;2023-06-22T14:36:51;27.50;58.00
9118;DHT22;4594;50.994;7.126;2023-06-22T14:39:17;27.50;58.30
9118;DHT22;4594;50.994;7.126;2023-06-22T14:41:43;27.50;57.90
9118;DHT22;4594;50.994;7.126;2023-06-22T14:44:08;27.50;57.80
9118;DHT22;4594;50.994;7.126;2023-06-22T14:46:35;27.50;57.60
9118;DHT22;4594;50.994;7.126;2023-06-22T14:49:00;27.50;57.70
9118;DHT22;4594;50.994;7.126;2023-06-22T14:51:26;27.40;57.50
9118;DHT22;4594;50.994;7.126;2023-06-22T14:53:52;27.40;57.60
9118;DHT22;4594;50.994;7.126;2023-06-22T14:56:18;27.40;57.10
9118;DHT22;4594;50.994;7.126;2023-06-22T14:58:44;27.30;57.30
9118;DHT22;4594;50.994;7.126;2023-06-22T15:01:13;27.30;57.80
9118;DHT22;4594;50.994;7.126;2023-06-22T15:03:41;27.30;58.30
9118;DHT22;4594;50.994;7.126;2023-06-22T15:06:07;27.10;58.80
9118;DHT22;4594;50.994;7.126;2023-06-22T15:08:33;27.10;59.10
9118;DHT22;4594;50.994;7.126;2023-06-22T15:10:59;27.00;58.90
9118;DHT22;4594;50.994;7.126;2023-06-22T15:13:29;26.80;58.60
9118;DHT22;4594;50.994;7.126;2023-06-22T15:15:59;26.70;58.40
9118;DHT22;4594;50.994;7.126;2023-06-22T15:18:25;26.50;58.50
9118;DHT22;4594;50.994;7.126;2023-06-22T15:20:52;26.30;58.90
9118;DHT22;4594;50.994;7.126;2023-06-22T15:23:18;26.20;59.20
9118;DHT22;4594;50.994;7.126;2023-06-22T15:25:44;26.10;59.10
9118;DHT22;4594;50.994;7.126;2023-06-22T15:28:11;25.90;59.10
9118;DHT22;4594;50.994;7.126;2023-06-22T15:30:37;25.80;59.60
9118;DHT22;4594;50.994;7.126;2023-06-22T15:33:03;25.70;60.30
9118;DHT22;4594;50.994;7.126;2023-06-22T15:35:28;25.60;60.90
9118;DHT22;4594;50.994;7.126;2023-06-22T15:37:54;25.40;61.20
9118;DHT22;4594;50.994;7.126;2023-06-22T15:40:20;25.20;61.80
9118;DHT22;4594;50.994;7.126;2023-06-22T15:42:49;25.00;62.30
9118;DHT22;4594;50.994;7.126;2023-06-22T15:45:15;24.90;63.20
9118;DHT22;4594;50.994;7.126;2023-06-22T15:47:41;24.70;63.90
9118;DHT22;4594;50.994;7.126;2023-06-22T15:50:07;24.50;64.40
9118;DHT22;4594;50.994;7.126;2023-06-22T15:52:33;24.40;64.80
9118;DHT22;4594;50.994;7.126;2023-06-22T15:54:58;24.30;65.00
9118;DHT22;4594;50.994;7.126;2023-06-22T15:57:26;24.20;65.20
9118;DHT22;4594;50.994;7.126;2023-06-22T15:59:52;24.00;65.10
9118;DHT22;4594;50.994;7.126;2023-06-22T16:02:19;23.90;65.60
9118;DHT22;4594;50.994;7.126;2023-06-22T16:04:45;23.80;66.10
9118;DHT22;4594;50.994;7.126;2023-06-22T16:07:12;23.70;66.60
9118;DHT22;4594;50.994;7.126;2023-06-22T16:09:38;23.60;67.00
9118;DHT22;4594;50.994;7.126;2023-06-22T16:12:05;23.60;67.70